aviador You're here:

GMAT Decoded Metar

TAN TAN in MOROCCO
Report Time2017-08-21 13:00:00
UTC Time2017-08-21 13:51:01
Flight Rules vfr VFR
Wind340° at 10 kt
W.Decomp.*RWY 03: 6.9 kt HW 7.2 kt LCW
W.Rank340° ranks 3
Current wind is below 340° avg. (11.3)
Visibility9999 m
Phenomena:N/A
Clouds:N/A
Expected CloudBase > 4,000 ft AGL from Temp-Dew spread
CeilingNone
Temp29°C (ISA +15)
Dew Point19°C (55% RH)
Heat Index30.3°C
AAT28.6°C
QNH1013 hPa
Density Alt2,703 ft
Elevation656 ft
Report Wrong Elevation
Raw Report
GMAT 211300Z 34010KT CAVOK 29/19 Q1013 NOSIG=

Extra information for GMAT:More info

Metar Taf Metar & Taf Last 4 Metars F.Rules Stats Wind Profile Meteogram Temp Stats Airport Information Weather charts Add Link Nearby VenuesMetar ALERT Operation Metar Decoded Social comments